BCS7XH EBLG-LICA
Flight info
| Callsign | BCS7XH |
|---|---|
| Flight time | 2h 13m |
| Altitude | 35000 |
| Route | LNO N852 LIMGO DCT EDISA Y173 PABLA Z721 UTABA M738 NATAG DCT BORMI DCT ANC DCT UTENO DCT GOSEB DCT ARBUM |
| Aircraft | A306/H-SDE3FGHIRWY/LB1 |
Departure
| Time | 2026-05-04 13:07 |
|---|---|
| Airport | Liège Airport (EBLG) |
Arrival
| Time | 2026-05-04 15:20 |
|---|---|
| Airport | Lamezia Terme Sant'Eufemia International Airport (LICA) |
| Time | Latitude | Longitude | Altitude | Speed | Heading |
|---|---|---|---|---|---|
| 2026-05-04 12:40 | 50.63803 | 5.45092 | 622 ft | 0 kts | 135° |
| 2026-05-04 12:55 | 50.63814 | 5.45076 | 622 ft | 4 kts | 134° |
| 2026-05-04 12:56 | 50.63832 | 5.45044 | 629 ft | 4 kts | 129° |
| 2026-05-04 12:56 | 50.63848 | 5.45011 | 635 ft | 4 kts | 120° |
| 2026-05-04 12:56 | 50.63858 | 5.44973 | 635 ft | 4 kts | 89° |
| 2026-05-04 12:56 | 50.63855 | 5.44951 | 635 ft | 1 kts | 45° |
| 2026-05-04 12:59 | 50.63861 | 5.44961 | 635 ft | 1 kts | 46° |
| 2026-05-04 13:00 | 50.63873 | 5.44980 | 622 ft | 4 kts | 46° |
| 2026-05-04 13:00 | 50.63888 | 5.45005 | 631 ft | 3 kts | 46° |
| 2026-05-04 13:00 | 50.63911 | 5.45043 | 630 ft | 6 kts | 46° |
| 2026-05-04 13:00 | 50.63943 | 5.45095 | 630 ft | 8 kts | 45° |
| 2026-05-04 13:01 | 50.63999 | 5.45184 | 634 ft | 14 kts | 45° |
| 2026-05-04 13:01 | 50.64075 | 5.45304 | 625 ft | 12 kts | 44° |
| 2026-05-04 13:01 | 50.64128 | 5.45388 | 630 ft | 10 kts | 45° |
| 2026-05-04 13:01 | 50.64169 | 5.45453 | 633 ft | 8 kts | 45° |
| 2026-05-04 13:02 | 50.64222 | 5.45538 | 632 ft | 14 kts | 45° |
| 2026-05-04 13:02 | 50.64305 | 5.45671 | 623 ft | 19 kts | 45° |
| 2026-05-04 13:02 | 50.64389 | 5.45803 | 635 ft | 15 kts | 45° |
| 2026-05-04 13:02 | 50.64463 | 5.45921 | 635 ft | 16 kts | 46° |
| 2026-05-04 13:03 | 50.64543 | 5.46047 | 635 ft | 16 kts | 45° |
| 2026-05-04 13:03 | 50.64614 | 5.46159 | 631 ft | 14 kts | 46° |
| 2026-05-04 13:03 | 50.64694 | 5.46208 | 629 ft | 14 kts | 343° |
| 2026-05-04 13:03 | 50.64717 | 5.46181 | 633 ft | 0 kts | 315° |
| 2026-05-04 13:04 | 50.64718 | 5.46180 | 633 ft | 1 kts | 315° |
| 2026-05-04 13:04 | 50.64743 | 5.46141 | 627 ft | 9 kts | 315° |
| 2026-05-04 13:04 | 50.64772 | 5.46059 | 623 ft | 7 kts | 269° |
| 2026-05-04 13:05 | 50.64756 | 5.46021 | 623 ft | 0 kts | 226° |
| 2026-05-04 13:05 | 50.64740 | 5.45995 | 630 ft | 10 kts | 226° |
| 2026-05-04 13:06 | 50.64637 | 5.45827 | 631 ft | 37 kts | 226° |
| 2026-05-04 13:06 | 50.64303 | 5.45302 | 604 ft | 99 kts | 225° |
| 2026-05-04 13:06 | 50.63689 | 5.44333 | 636 ft | 148 kts | 226° |
| 2026-05-04 13:06 | 50.62873 | 5.43063 | 875 ft | 174 kts | 223° |
| 2026-05-04 13:07 | 50.61933 | 5.41872 | 1600 ft | 174 kts | 209° |
| 2026-05-04 13:07 | 50.60871 | 5.40947 | 2306 ft | 174 kts | 205° |
| 2026-05-04 13:07 | 50.59802 | 5.40127 | 3094 ft | 167 kts | 202° |
| 2026-05-04 13:07 | 50.58764 | 5.39336 | 3734 ft | 166 kts | 213° |
| 2026-05-04 13:08 | 50.58179 | 5.37778 | 4245 ft | 174 kts | 263° |
| 2026-05-04 13:08 | 50.58249 | 5.36518 | 4655 ft | 174 kts | 279° |
| 2026-05-04 13:08 | 50.58816 | 5.34158 | 5415 ft | 176 kts | 295° |
| 2026-05-04 13:08 | 50.59451 | 5.32494 | 5961 ft | 178 kts | 298° |
| 2026-05-04 13:09 | 50.60099 | 5.30812 | 6489 ft | 180 kts | 297° |
| 2026-05-04 13:09 | 50.60741 | 5.29056 | 6885 ft | 193 kts | 295° |
| 2026-05-04 13:09 | 50.61422 | 5.27095 | 7169 ft | 215 kts | 295° |
| 2026-05-04 13:09 | 50.61903 | 5.25673 | 7355 ft | 230 kts | 295° |
| 2026-05-04 13:10 | 50.62681 | 5.23346 | 7898 ft | 246 kts | 295° |
| 2026-05-04 13:10 | 50.63490 | 5.20955 | 8801 ft | 248 kts | 296° |
| 2026-05-04 13:10 | 50.64342 | 5.18586 | 9690 ft | 249 kts | 297° |
| 2026-05-04 13:10 | 50.65214 | 5.16208 | 10451 ft | 252 kts | 297° |
| 2026-05-04 13:11 | 50.66139 | 5.13832 | 11123 ft | 256 kts | 305° |
| 2026-05-04 13:11 | 50.67461 | 5.11920 | 11743 ft | 262 kts | 329° |
| 2026-05-04 13:11 | 50.69193 | 5.11136 | 12349 ft | 266 kts | 358° |
| 2026-05-04 13:11 | 50.71004 | 5.11719 | 12995 ft | 269 kts | 21° |
| 2026-05-04 13:12 | 50.72677 | 5.13044 | 13713 ft | 269 kts | 27° |
| 2026-05-04 13:12 | 50.74273 | 5.14639 | 14238 ft | 274 kts | 39° |
| 2026-05-04 13:12 | 50.75472 | 5.16989 | 14699 ft | 278 kts | 65° |
| 2026-05-04 13:12 | 50.75898 | 5.19936 | 15228 ft | 277 kts | 91° |
| 2026-05-04 13:13 | 50.75479 | 5.22841 | 15815 ft | 274 kts | 113° |
| 2026-05-04 13:13 | 50.74620 | 5.25532 | 16472 ft | 273 kts | 118° |
| 2026-05-04 13:13 | 50.73693 | 5.28169 | 17110 ft | 276 kts | 119° |
| 2026-05-04 13:13 | 50.72751 | 5.30840 | 17754 ft | 279 kts | 119° |
| 2026-05-04 13:14 | 50.71818 | 5.33501 | 18382 ft | 281 kts | 119° |
| 2026-05-04 13:14 | 50.70858 | 5.36260 | 18732 ft | 294 kts | 119° |
| 2026-05-04 13:14 | 50.69855 | 5.39156 | 19037 ft | 308 kts | 119° |
| 2026-05-04 13:14 | 50.68806 | 5.42199 | 19319 ft | 322 kts | 119° |
| 2026-05-04 13:15 | 50.67715 | 5.45367 | 19598 ft | 335 kts | 119° |
| 2026-05-04 13:15 | 50.66578 | 5.48671 | 19816 ft | 348 kts | 119° |
| 2026-05-04 13:15 | 50.65416 | 5.52045 | 19986 ft | 360 kts | 119° |
| 2026-05-04 13:15 | 50.64201 | 5.55570 | 20153 ft | 371 kts | 120° |
| 2026-05-04 13:16 | 50.62944 | 5.59202 | 20320 ft | 382 kts | 120° |
| 2026-05-04 13:16 | 50.61639 | 5.62931 | 20454 ft | 393 kts | 121° |
| 2026-05-04 13:16 | 50.60122 | 5.66570 | 20549 ft | 402 kts | 129° |
| 2026-05-04 13:16 | 50.58227 | 5.69796 | 20653 ft | 408 kts | 140° |
| 2026-05-04 13:17 | 50.55924 | 5.72488 | 20758 ft | 414 kts | 150° |
| 2026-05-04 13:17 | 50.53337 | 5.74524 | 20985 ft | 417 kts | 157° |
| 2026-05-04 13:17 | 50.50645 | 5.76304 | 21306 ft | 420 kts | 159° |
| 2026-05-04 13:17 | 50.47904 | 5.77966 | 21705 ft | 422 kts | 161° |
| 2026-05-04 13:18 | 50.45180 | 5.79542 | 22132 ft | 423 kts | 161° |
| 2026-05-04 13:18 | 50.42406 | 5.81122 | 22510 ft | 426 kts | 161° |
| 2026-05-04 13:18 | 50.39615 | 5.82715 | 22853 ft | 428 kts | 161° |
| 2026-05-04 13:18 | 50.36809 | 5.84328 | 23195 ft | 429 kts | 161° |
| 2026-05-04 13:19 | 50.34000 | 5.85951 | 23491 ft | 431 kts | 161° |
| 2026-05-04 13:19 | 50.31178 | 5.87585 | 23740 ft | 433 kts | 161° |
| 2026-05-04 13:19 | 50.28341 | 5.89230 | 23988 ft | 435 kts | 161° |
| 2026-05-04 13:19 | 50.25503 | 5.90877 | 24230 ft | 436 kts | 161° |
| 2026-05-04 13:20 | 50.22653 | 5.92532 | 24457 ft | 438 kts | 161° |
| 2026-05-04 13:20 | 50.19791 | 5.94191 | 24705 ft | 440 kts | 161° |
| 2026-05-04 13:20 | 50.16906 | 5.95861 | 24944 ft | 441 kts | 161° |
| 2026-05-04 13:20 | 50.14056 | 5.97508 | 25150 ft | 442 kts | 161° |
| 2026-05-04 13:21 | 50.11158 | 5.99179 | 25358 ft | 444 kts | 161° |
| 2026-05-04 13:21 | 50.08249 | 6.00854 | 25585 ft | 445 kts | 161° |
| 2026-05-04 13:21 | 50.05329 | 6.02533 | 25809 ft | 446 kts | 161° |
| 2026-05-04 13:21 | 50.02447 | 6.04190 | 26032 ft | 447 kts | 161° |
| 2026-05-04 13:22 | 49.99521 | 6.05870 | 26258 ft | 448 kts | 161° |
| 2026-05-04 13:22 | 49.96580 | 6.07556 | 26468 ft | 449 kts | 161° |
| 2026-05-04 13:22 | 49.93639 | 6.09240 | 26680 ft | 451 kts | 161° |
| 2026-05-04 13:22 | 49.90685 | 6.10929 | 26895 ft | 452 kts | 161° |
| 2026-05-04 13:23 | 49.87775 | 6.12591 | 27164 ft | 451 kts | 161° |
| 2026-05-04 13:23 | 49.84844 | 6.14342 | 27465 ft | 451 kts | 159° |
| 2026-05-04 13:23 | 49.81949 | 6.16238 | 27767 ft | 451 kts | 158° |
| 2026-05-04 13:23 | 49.79081 | 6.18205 | 28069 ft | 450 kts | 158° |
| 2026-05-04 13:24 | 49.76220 | 6.20198 | 28367 ft | 449 kts | 158° |
| 2026-05-04 13:24 | 49.73377 | 6.22176 | 28660 ft | 448 kts | 158° |
| 2026-05-04 13:24 | 49.70553 | 6.24213 | 28971 ft | 449 kts | 154° |
| 2026-05-04 13:25 | 49.65559 | 6.29991 | 29519 ft | 457 kts | 137° |
| 2026-05-04 13:25 | 49.63411 | 6.33646 | 29711 ft | 461 kts | 134° |
| 2026-05-04 13:25 | 49.61351 | 6.37478 | 29912 ft | 463 kts | 132° |
| 2026-05-04 13:25 | 49.59340 | 6.41370 | 30236 ft | 463 kts | 131° |
| 2026-05-04 13:26 | 49.57347 | 6.45260 | 30552 ft | 462 kts | 131° |
| 2026-05-04 13:26 | 49.55349 | 6.49134 | 30797 ft | 461 kts | 132° |
| 2026-05-04 13:26 | 49.53367 | 6.52934 | 31058 ft | 460 kts | 132° |
| 2026-05-04 13:26 | 49.51353 | 6.56754 | 31308 ft | 459 kts | 132° |
| 2026-05-04 13:27 | 49.49331 | 6.60557 | 31563 ft | 458 kts | 133° |
| 2026-05-04 13:27 | 49.47308 | 6.64345 | 31793 ft | 457 kts | 133° |
| 2026-05-04 13:27 | 49.45283 | 6.68125 | 32029 ft | 457 kts | 133° |
| 2026-05-04 13:27 | 49.43256 | 6.71903 | 32249 ft | 456 kts | 133° |
| 2026-05-04 13:28 | 49.41254 | 6.75627 | 32377 ft | 458 kts | 133° |
| 2026-05-04 13:28 | 49.39218 | 6.79405 | 32578 ft | 458 kts | 133° |
| 2026-05-04 13:28 | 49.37182 | 6.83181 | 32829 ft | 457 kts | 133° |
| 2026-05-04 13:28 | 49.35158 | 6.86932 | 33086 ft | 456 kts | 133° |
| 2026-05-04 13:29 | 49.33130 | 6.90686 | 33332 ft | 456 kts | 133° |
| 2026-05-04 13:29 | 49.31130 | 6.94383 | 33595 ft | 455 kts | 133° |
| 2026-05-04 13:29 | 49.29107 | 6.98114 | 33852 ft | 454 kts | 133° |
| 2026-05-04 13:29 | 49.27082 | 7.01843 | 34080 ft | 453 kts | 133° |
| 2026-05-04 13:30 | 49.25062 | 7.05553 | 34253 ft | 453 kts | 133° |
| 2026-05-04 13:30 | 49.23040 | 7.09260 | 34457 ft | 453 kts | 133° |
| 2026-05-04 13:30 | 49.21020 | 7.12958 | 34588 ft | 454 kts | 133° |
| 2026-05-04 13:30 | 49.18988 | 7.16672 | 34713 ft | 455 kts | 133° |
| 2026-05-04 13:31 | 49.16977 | 7.20346 | 34867 ft | 455 kts | 133° |
| 2026-05-04 13:31 | 49.14946 | 7.24055 | 35000 ft | 455 kts | 133° |
| 2026-05-04 13:31 | 49.10873 | 7.31476 | 35015 ft | 455 kts | 133° |
| 2026-05-04 13:32 | 49.06819 | 7.38844 | 35005 ft | 455 kts | 133° |
| 2026-05-04 13:32 | 49.02740 | 7.46240 | 35004 ft | 455 kts | 133° |
| 2026-05-04 13:33 | 48.98657 | 7.53623 | 34997 ft | 456 kts | 133° |
| 2026-05-04 13:33 | 48.94554 | 7.61021 | 34990 ft | 457 kts | 133° |
| 2026-05-04 13:34 | 48.90468 | 7.68371 | 34995 ft | 457 kts | 133° |
| 2026-05-04 13:34 | 48.86355 | 7.75748 | 34990 ft | 457 kts | 133° |
| 2026-05-04 13:35 | 48.80178 | 7.86786 | 34997 ft | 457 kts | 133° |
| 2026-05-04 13:36 | 48.76045 | 7.94142 | 34995 ft | 459 kts | 133° |
| 2026-05-04 13:36 | 48.71908 | 8.01536 | 34994 ft | 461 kts | 131° |
| 2026-05-04 13:37 | 48.68004 | 8.09200 | 34924 ft | 462 kts | 129° |
| 2026-05-04 13:37 | 48.63860 | 8.16589 | 34999 ft | 459 kts | 135° |
| 2026-05-04 13:38 | 48.59514 | 8.23677 | 34988 ft | 459 kts | 135° |
| 2026-05-04 13:38 | 48.55271 | 8.30845 | 34988 ft | 460 kts | 134° |
| 2026-05-04 13:39 | 48.51071 | 8.38151 | 34974 ft | 460 kts | 133° |
| 2026-05-04 13:39 | 48.46890 | 8.45474 | 34977 ft | 460 kts | 133° |
| 2026-05-04 13:40 | 48.42731 | 8.52732 | 34978 ft | 460 kts | 133° |
| 2026-05-04 13:40 | 48.38531 | 8.60035 | 34979 ft | 460 kts | 134° |
| 2026-05-04 13:41 | 48.34323 | 8.67322 | 34974 ft | 461 kts | 133° |
| 2026-05-04 13:41 | 48.30130 | 8.74564 | 34972 ft | 462 kts | 133° |
| 2026-05-04 13:42 | 48.23791 | 8.85479 | 34972 ft | 462 kts | 133° |
| 2026-05-04 13:42 | 48.19584 | 8.92696 | 34972 ft | 462 kts | 133° |
| 2026-05-04 13:43 | 48.15342 | 8.99955 | 34955 ft | 462 kts | 133° |
| 2026-05-04 13:43 | 48.11130 | 9.07144 | 34969 ft | 461 kts | 133° |
| 2026-05-04 13:44 | 48.06884 | 9.14369 | 34961 ft | 461 kts | 133° |
| 2026-05-04 13:44 | 48.02648 | 9.21558 | 34963 ft | 460 kts | 133° |
| 2026-05-04 13:45 | 47.98435 | 9.28687 | 34960 ft | 460 kts | 133° |
| 2026-05-04 13:45 | 47.94183 | 9.35864 | 34941 ft | 460 kts | 133° |
| 2026-05-04 13:46 | 47.89940 | 9.43009 | 34958 ft | 459 kts | 133° |
| 2026-05-04 13:46 | 47.85726 | 9.50084 | 34955 ft | 458 kts | 133° |
| 2026-05-04 13:47 | 47.81486 | 9.57184 | 34949 ft | 458 kts | 133° |
| 2026-05-04 13:47 | 47.77242 | 9.64274 | 34965 ft | 458 kts | 133° |
| 2026-05-04 13:48 | 47.73002 | 9.71337 | 34948 ft | 458 kts | 133° |
| 2026-05-04 13:48 | 47.68782 | 9.78345 | 34963 ft | 458 kts | 133° |
| 2026-05-04 13:49 | 47.64526 | 9.85398 | 34964 ft | 458 kts | 133° |
| 2026-05-04 13:49 | 47.60271 | 9.92431 | 34964 ft | 458 kts | 133° |
| 2026-05-04 13:50 | 47.56042 | 9.99401 | 34962 ft | 457 kts | 133° |
| 2026-05-04 13:50 | 47.51776 | 10.06413 | 34973 ft | 457 kts | 133° |
| 2026-05-04 13:51 | 47.47511 | 10.13402 | 34984 ft | 458 kts | 133° |
| 2026-05-04 13:51 | 47.42868 | 10.19798 | 34995 ft | 456 kts | 146° |
| 2026-05-04 13:52 | 47.34943 | 10.27354 | 35008 ft | 452 kts | 149° |
| 2026-05-04 13:53 | 47.29564 | 10.32185 | 35028 ft | 451 kts | 150° |
| 2026-05-04 13:53 | 47.24865 | 10.36378 | 35044 ft | 451 kts | 150° |
| 2026-05-04 13:54 | 47.16845 | 10.43549 | 35048 ft | 451 kts | 149° |
| 2026-05-04 13:55 | 47.08799 | 10.50751 | 35043 ft | 450 kts | 150° |
| 2026-05-04 13:55 | 47.03172 | 10.54518 | 35056 ft | 446 kts | 161° |
| 2026-05-04 13:55 | 47.00228 | 10.55974 | 35041 ft | 445 kts | 163° |
| 2026-05-04 13:56 | 46.94319 | 10.58677 | 35044 ft | 444 kts | 164° |
| 2026-05-04 13:57 | 46.85528 | 10.62791 | 35044 ft | 445 kts | 158° |
| 2026-05-04 13:58 | 46.75141 | 10.69623 | 35050 ft | 447 kts | 156° |
| 2026-05-04 13:58 | 46.66676 | 10.75372 | 35040 ft | 447 kts | 156° |
| 2026-05-04 13:59 | 46.61025 | 10.79180 | 35045 ft | 447 kts | 156° |
| 2026-05-04 14:00 | 46.52551 | 10.84855 | 35053 ft | 447 kts | 156° |
| 2026-05-04 14:00 | 46.44063 | 10.90519 | 35037 ft | 447 kts | 156° |
| 2026-05-04 14:01 | 46.38436 | 10.94262 | 35183 ft | 448 kts | 156° |
| 2026-05-04 14:02 | 46.29912 | 10.99917 | 35213 ft | 449 kts | 156° |
| 2026-05-04 14:02 | 46.24226 | 11.03680 | 35211 ft | 449 kts | 156° |
| 2026-05-04 14:03 | 46.18542 | 11.07433 | 35187 ft | 449 kts | 156° |
| 2026-05-04 14:03 | 46.12861 | 11.11177 | 35149 ft | 449 kts | 156° |
| 2026-05-04 14:04 | 46.04386 | 11.16861 | 35095 ft | 450 kts | 151° |
| 2026-05-04 14:04 | 45.99091 | 11.21721 | 35070 ft | 453 kts | 147° |
| 2026-05-04 14:05 | 45.91296 | 11.29431 | 35056 ft | 455 kts | 146° |
| 2026-05-04 14:06 | 45.86091 | 11.34599 | 35053 ft | 455 kts | 146° |
| 2026-05-04 14:06 | 45.80867 | 11.39746 | 35050 ft | 455 kts | 146° |
| 2026-05-04 14:07 | 45.75637 | 11.44872 | 35047 ft | 455 kts | 147° |
| 2026-05-04 14:07 | 45.70405 | 11.49985 | 35045 ft | 455 kts | 147° |
| 2026-05-04 14:08 | 45.65161 | 11.55099 | 35046 ft | 455 kts | 147° |
| 2026-05-04 14:08 | 45.59950 | 11.60171 | 35043 ft | 455 kts | 147° |
| 2026-05-04 14:09 | 45.52096 | 11.67794 | 35040 ft | 454 kts | 147° |
| 2026-05-04 14:10 | 45.44254 | 11.75380 | 35040 ft | 455 kts | 147° |
| 2026-05-04 14:10 | 45.38987 | 11.80456 | 35039 ft | 459 kts | 147° |
| 2026-05-04 14:11 | 45.33690 | 11.85553 | 35040 ft | 459 kts | 147° |
| 2026-05-04 14:11 | 45.25769 | 11.93153 | 35042 ft | 460 kts | 147° |
| 2026-05-04 14:12 | 45.20453 | 11.98239 | 35048 ft | 460 kts | 147° |
| 2026-05-04 14:13 | 45.12499 | 12.05829 | 35042 ft | 458 kts | 146° |
| 2026-05-04 14:13 | 45.07192 | 12.10877 | 35043 ft | 459 kts | 147° |
| 2026-05-04 14:14 | 45.01917 | 12.15881 | 35045 ft | 459 kts | 147° |
| 2026-05-04 14:14 | 44.93952 | 12.23421 | 35051 ft | 459 kts | 147° |
| 2026-05-04 14:15 | 44.83295 | 12.33465 | 35067 ft | 462 kts | 147° |
| 2026-05-04 14:16 | 44.75272 | 12.41000 | 35054 ft | 462 kts | 147° |
| 2026-05-04 14:17 | 44.67276 | 12.48483 | 35065 ft | 463 kts | 147° |
| 2026-05-04 14:18 | 44.59206 | 12.56009 | 35065 ft | 463 kts | 147° |
| 2026-05-04 14:19 | 44.48503 | 12.65954 | 35056 ft | 461 kts | 147° |
| 2026-05-04 14:19 | 44.43129 | 12.70924 | 35070 ft | 464 kts | 147° |
| 2026-05-04 14:20 | 44.37769 | 12.75876 | 35069 ft | 465 kts | 147° |
| 2026-05-04 14:20 | 44.32355 | 12.80868 | 35068 ft | 465 kts | 147° |
| 2026-05-04 14:21 | 44.24261 | 12.88311 | 35070 ft | 464 kts | 147° |
| 2026-05-04 14:21 | 44.18886 | 12.93236 | 35073 ft | 465 kts | 147° |
| 2026-05-04 14:22 | 44.13467 | 12.98192 | 35071 ft | 465 kts | 147° |
| 2026-05-04 14:22 | 44.08057 | 13.03129 | 35070 ft | 465 kts | 147° |
| 2026-05-04 14:23 | 43.99928 | 13.10526 | 35073 ft | 465 kts | 147° |
| 2026-05-04 14:24 | 43.94508 | 13.15445 | 35072 ft | 465 kts | 147° |
| 2026-05-04 14:24 | 43.89140 | 13.20307 | 35072 ft | 463 kts | 147° |
| 2026-05-04 14:25 | 43.83740 | 13.25186 | 35065 ft | 462 kts | 147° |
| 2026-05-04 14:25 | 43.75617 | 13.32501 | 35074 ft | 465 kts | 147° |
| 2026-05-04 14:26 | 43.70189 | 13.37379 | 35075 ft | 465 kts | 147° |
| 2026-05-04 14:26 | 43.64758 | 13.42249 | 35075 ft | 465 kts | 147° |
| 2026-05-04 14:27 | 43.59133 | 13.46670 | 35080 ft | 466 kts | 155° |
| 2026-05-04 14:27 | 43.53199 | 13.50317 | 35074 ft | 467 kts | 157° |
| 2026-05-04 14:28 | 43.47213 | 13.53839 | 35075 ft | 467 kts | 157° |
| 2026-05-04 14:28 | 43.41269 | 13.57296 | 35068 ft | 466 kts | 158° |
| 2026-05-04 14:29 | 43.29263 | 13.64236 | 35077 ft | 468 kts | 158° |
| 2026-05-04 14:30 | 43.23252 | 13.67697 | 35080 ft | 468 kts | 158° |
| 2026-05-04 14:31 | 43.14239 | 13.72872 | 35081 ft | 471 kts | 158° |
| 2026-05-04 14:32 | 43.02120 | 13.79808 | 35081 ft | 472 kts | 158° |
| 2026-05-04 14:32 | 42.96053 | 13.83268 | 35080 ft | 474 kts | 159° |
| 2026-05-04 14:33 | 42.89914 | 13.86761 | 35085 ft | 478 kts | 158° |
| 2026-05-04 14:33 | 42.83790 | 13.90244 | 35081 ft | 475 kts | 158° |
| 2026-05-04 14:34 | 42.77735 | 13.93675 | 35078 ft | 474 kts | 158° |
| 2026-05-04 14:34 | 42.71603 | 13.97139 | 35078 ft | 479 kts | 159° |
| 2026-05-04 14:35 | 42.65426 | 14.00625 | 35077 ft | 481 kts | 159° |
| 2026-05-04 14:35 | 42.59230 | 14.04115 | 35081 ft | 481 kts | 159° |
| 2026-05-04 14:36 | 42.53070 | 14.07576 | 35097 ft | 481 kts | 159° |
| 2026-05-04 14:36 | 42.46863 | 14.11055 | 35104 ft | 483 kts | 159° |
| 2026-05-04 14:37 | 42.40637 | 14.14539 | 35102 ft | 483 kts | 159° |
| 2026-05-04 14:37 | 42.34420 | 14.18010 | 35089 ft | 483 kts | 159° |
| 2026-05-04 14:38 | 42.28178 | 14.21485 | 35095 ft | 488 kts | 160° |
| 2026-05-04 14:38 | 42.21891 | 14.24981 | 35093 ft | 488 kts | 159° |
| 2026-05-04 14:39 | 42.15662 | 14.28437 | 35088 ft | 487 kts | 159° |
| 2026-05-04 14:39 | 42.09375 | 14.31915 | 35090 ft | 487 kts | 159° |
| 2026-05-04 14:40 | 41.99966 | 14.37108 | 35085 ft | 490 kts | 159° |
| 2026-05-04 14:40 | 41.93643 | 14.40589 | 35094 ft | 490 kts | 159° |
| 2026-05-04 14:41 | 41.87317 | 14.44066 | 35089 ft | 491 kts | 159° |
| 2026-05-04 14:42 | 41.74708 | 14.50969 | 35095 ft | 491 kts | 159° |
| 2026-05-04 14:42 | 41.68380 | 14.54423 | 35090 ft | 491 kts | 159° |
| 2026-05-04 14:43 | 41.63067 | 14.57315 | 35102 ft | 494 kts | 160° |
| 2026-05-04 14:43 | 41.56727 | 14.60762 | 35111 ft | 496 kts | 160° |
| 2026-05-04 14:44 | 41.50324 | 14.64237 | 35114 ft | 496 kts | 160° |
| 2026-05-04 14:44 | 41.43908 | 14.67710 | 35118 ft | 496 kts | 160° |
| 2026-05-04 14:45 | 41.37488 | 14.71177 | 35127 ft | 498 kts | 160° |
| 2026-05-04 14:45 | 41.31108 | 14.74617 | 35136 ft | 498 kts | 160° |
| 2026-05-04 14:46 | 41.24680 | 14.78075 | 35133 ft | 498 kts | 160° |
| 2026-05-04 14:46 | 41.18245 | 14.81528 | 35136 ft | 500 kts | 160° |
| 2026-05-04 14:47 | 41.11777 | 14.84993 | 35147 ft | 501 kts | 160° |
| 2026-05-04 14:47 | 41.05305 | 14.88453 | 35149 ft | 502 kts | 160° |
| 2026-05-04 14:48 | 40.98812 | 14.91915 | 35150 ft | 502 kts | 160° |
| 2026-05-04 14:48 | 40.92357 | 14.95350 | 35150 ft | 504 kts | 160° |
| 2026-05-04 14:49 | 40.85840 | 14.98812 | 35149 ft | 505 kts | 160° |
| 2026-05-04 14:49 | 40.79320 | 15.02263 | 35152 ft | 505 kts | 160° |
| 2026-05-04 14:50 | 40.72781 | 15.05722 | 35146 ft | 506 kts | 160° |
| 2026-05-04 14:50 | 40.66239 | 15.09175 | 35145 ft | 507 kts | 160° |
| 2026-05-04 14:51 | 40.59680 | 15.12629 | 35153 ft | 507 kts | 160° |
| 2026-05-04 14:51 | 40.53112 | 15.16081 | 35153 ft | 508 kts | 160° |
| 2026-05-04 14:52 | 40.46528 | 15.19532 | 35153 ft | 510 kts | 161° |
| 2026-05-04 14:52 | 40.39973 | 15.22963 | 35147 ft | 510 kts | 161° |
| 2026-05-04 14:53 | 40.33376 | 15.26410 | 34735 ft | 510 kts | 161° |
| 2026-05-04 14:53 | 40.30080 | 15.28131 | 34124 ft | 509 kts | 161° |
| 2026-05-04 14:53 | 40.26798 | 15.29841 | 33470 ft | 506 kts | 160° |
| 2026-05-04 14:54 | 40.23536 | 15.31541 | 32794 ft | 503 kts | 160° |
| 2026-05-04 14:54 | 40.20288 | 15.33232 | 32155 ft | 500 kts | 160° |
| 2026-05-04 14:54 | 40.17073 | 15.34905 | 31523 ft | 496 kts | 160° |
| 2026-05-04 14:54 | 40.13878 | 15.36563 | 30910 ft | 492 kts | 160° |
| 2026-05-04 14:55 | 40.10722 | 15.38200 | 30427 ft | 485 kts | 159° |
| 2026-05-04 14:55 | 40.07604 | 15.39814 | 29897 ft | 479 kts | 160° |
| 2026-05-04 14:55 | 40.04520 | 15.41408 | 29370 ft | 473 kts | 160° |
| 2026-05-04 14:55 | 40.01474 | 15.42978 | 28927 ft | 467 kts | 160° |
| 2026-05-04 14:56 | 39.98470 | 15.44526 | 28431 ft | 461 kts | 160° |
| 2026-05-04 14:56 | 39.95502 | 15.46054 | 28000 ft | 455 kts | 160° |
| 2026-05-04 14:56 | 39.92574 | 15.47561 | 27558 ft | 450 kts | 160° |
| 2026-05-04 14:56 | 39.89700 | 15.49039 | 27127 ft | 447 kts | 160° |
| 2026-05-04 14:57 | 39.86815 | 15.50522 | 26698 ft | 444 kts | 159° |
| 2026-05-04 14:57 | 39.83948 | 15.51994 | 26260 ft | 440 kts | 160° |
| 2026-05-04 14:57 | 39.81107 | 15.53452 | 25851 ft | 437 kts | 160° |
| 2026-05-04 14:57 | 39.78289 | 15.54897 | 25448 ft | 434 kts | 159° |
| 2026-05-04 14:58 | 39.75488 | 15.56331 | 25190 ft | 431 kts | 159° |
| 2026-05-04 14:58 | 39.72694 | 15.57761 | 25139 ft | 431 kts | 159° |
| 2026-05-04 14:58 | 39.69944 | 15.59168 | 25135 ft | 428 kts | 159° |
| 2026-05-04 14:58 | 39.67175 | 15.60582 | 25135 ft | 426 kts | 159° |
| 2026-05-04 14:59 | 39.64421 | 15.61986 | 25135 ft | 425 kts | 160° |
| 2026-05-04 14:59 | 39.61667 | 15.63389 | 25135 ft | 425 kts | 160° |
| 2026-05-04 14:59 | 39.56159 | 15.66194 | 25135 ft | 425 kts | 159° |
| 2026-05-04 15:00 | 39.53428 | 15.67583 | 25134 ft | 417 kts | 159° |
| 2026-05-04 15:00 | 39.50733 | 15.68950 | 25139 ft | 413 kts | 160° |
| 2026-05-04 15:00 | 39.48071 | 15.70334 | 25136 ft | 413 kts | 158° |
| 2026-05-04 15:01 | 39.42884 | 15.73512 | 25144 ft | 412 kts | 162° |
| 2026-05-04 15:01 | 39.40169 | 15.74682 | 25140 ft | 411 kts | 162° |
| 2026-05-04 15:01 | 39.37465 | 15.75888 | 25137 ft | 411 kts | 161° |
| 2026-05-04 15:01 | 39.34775 | 15.77149 | 25137 ft | 412 kts | 161° |
| 2026-05-04 15:02 | 39.32126 | 15.78433 | 25131 ft | 411 kts | 160° |
| 2026-05-04 15:02 | 39.29482 | 15.79791 | 25013 ft | 405 kts | 156° |
| 2026-05-04 15:02 | 39.27034 | 15.81600 | 24605 ft | 407 kts | 143° |
| 2026-05-04 15:02 | 39.24813 | 15.83868 | 24129 ft | 406 kts | 139° |
| 2026-05-04 15:03 | 39.22668 | 15.86206 | 23653 ft | 399 kts | 139° |
| 2026-05-04 15:03 | 39.20582 | 15.88514 | 23118 ft | 391 kts | 137° |
| 2026-05-04 15:03 | 39.18611 | 15.90949 | 22613 ft | 392 kts | 134° |
| 2026-05-04 15:03 | 39.16685 | 15.93429 | 22074 ft | 392 kts | 134° |
| 2026-05-04 15:04 | 39.14759 | 15.95917 | 21564 ft | 392 kts | 134° |
| 2026-05-04 15:04 | 39.12836 | 15.98395 | 21034 ft | 391 kts | 134° |
| 2026-05-04 15:04 | 39.10911 | 16.00866 | 20577 ft | 389 kts | 134° |
| 2026-05-04 15:04 | 39.08998 | 16.03317 | 20026 ft | 385 kts | 134° |
| 2026-05-04 15:05 | 39.07144 | 16.05684 | 19506 ft | 375 kts | 134° |
| 2026-05-04 15:05 | 39.05314 | 16.08013 | 18989 ft | 365 kts | 134° |
| 2026-05-04 15:05 | 39.03525 | 16.10287 | 18488 ft | 357 kts | 134° |
| 2026-05-04 15:05 | 39.01774 | 16.12509 | 17912 ft | 349 kts | 134° |
| 2026-05-04 15:06 | 39.00061 | 16.14680 | 17329 ft | 342 kts | 134° |
| 2026-05-04 15:06 | 38.98380 | 16.16812 | 16762 ft | 336 kts | 134° |
| 2026-05-04 15:06 | 38.96728 | 16.18906 | 16224 ft | 329 kts | 134° |
| 2026-05-04 15:07 | 38.93532 | 16.22950 | 15252 ft | 316 kts | 134° |
| 2026-05-04 15:07 | 38.91983 | 16.24911 | 14784 ft | 309 kts | 133° |
| 2026-05-04 15:07 | 38.90572 | 16.26957 | 14344 ft | 303 kts | 123° |
| 2026-05-04 15:07 | 38.89462 | 16.29224 | 13889 ft | 297 kts | 117° |
| 2026-05-04 15:08 | 38.88473 | 16.31503 | 13391 ft | 293 kts | 116° |
| 2026-05-04 15:08 | 38.87498 | 16.33784 | 12916 ft | 289 kts | 116° |
| 2026-05-04 15:08 | 38.86534 | 16.36035 | 12433 ft | 286 kts | 116° |
| 2026-05-04 15:08 | 38.85580 | 16.38253 | 12005 ft | 283 kts | 116° |
| 2026-05-04 15:09 | 38.84627 | 16.40474 | 11556 ft | 286 kts | 116° |
| 2026-05-04 15:09 | 38.83670 | 16.42699 | 11092 ft | 281 kts | 116° |
| 2026-05-04 15:09 | 38.82740 | 16.44843 | 10600 ft | 268 kts | 116° |
| 2026-05-04 15:10 | 38.80970 | 16.48912 | 9640 ft | 261 kts | 116° |
| 2026-05-04 15:10 | 38.80091 | 16.50943 | 9117 ft | 259 kts | 116° |
| 2026-05-04 15:10 | 38.78611 | 16.55071 | 8197 ft | 252 kts | 100° |
| 2026-05-04 15:11 | 38.78292 | 16.57265 | 7744 ft | 248 kts | 96° |
| 2026-05-04 15:11 | 38.78041 | 16.59446 | 7307 ft | 246 kts | 94° |
| 2026-05-04 15:11 | 38.78056 | 16.61615 | 6884 ft | 242 kts | 76° |
| 2026-05-04 15:11 | 38.78730 | 16.63531 | 6435 ft | 238 kts | 49° |
| 2026-05-04 15:12 | 38.80002 | 16.64829 | 6061 ft | 231 kts | 21° |
| 2026-05-04 15:12 | 38.81500 | 16.65354 | 5983 ft | 218 kts | 7° |
| 2026-05-04 15:12 | 38.83005 | 16.65473 | 5927 ft | 216 kts | 351° |
| 2026-05-04 15:12 | 38.84405 | 16.64895 | 5715 ft | 211 kts | 327° |
| 2026-05-04 15:13 | 38.85454 | 16.63628 | 5444 ft | 206 kts | 301° |
| 2026-05-04 15:13 | 38.86035 | 16.61974 | 5155 ft | 203 kts | 285° |
| 2026-05-04 15:13 | 38.86351 | 16.60230 | 4862 ft | 199 kts | 278° |
| 2026-05-04 15:13 | 38.86555 | 16.58485 | 4545 ft | 196 kts | 275° |
| 2026-05-04 15:14 | 38.86730 | 16.56768 | 4249 ft | 193 kts | 275° |
| 2026-05-04 15:14 | 38.86907 | 16.55061 | 3950 ft | 192 kts | 275° |
| 2026-05-04 15:14 | 38.87095 | 16.53366 | 3644 ft | 191 kts | 275° |
| 2026-05-04 15:14 | 38.87291 | 16.51734 | 3505 ft | 183 kts | 275° |
| 2026-05-04 15:15 | 38.87492 | 16.50122 | 3478 ft | 182 kts | 275° |
| 2026-05-04 15:15 | 38.87689 | 16.48514 | 3465 ft | 181 kts | 276° |
| 2026-05-04 15:15 | 38.87891 | 16.46975 | 3362 ft | 169 kts | 277° |
| 2026-05-04 15:16 | 38.88230 | 16.44169 | 2859 ft | 148 kts | 275° |
| 2026-05-04 15:16 | 38.88375 | 16.42903 | 2661 ft | 141 kts | 275° |
| 2026-05-04 15:16 | 38.88666 | 16.40434 | 2286 ft | 142 kts | 275° |
| 2026-05-04 15:17 | 38.88805 | 16.39184 | 2107 ft | 142 kts | 275° |
| 2026-05-04 15:17 | 38.89094 | 16.36663 | 1724 ft | 143 kts | 275° |
| 2026-05-04 15:17 | 38.89242 | 16.35402 | 1523 ft | 142 kts | 275° |
| 2026-05-04 15:18 | 38.89389 | 16.34154 | 1309 ft | 140 kts | 274° |
| 2026-05-04 15:18 | 38.89530 | 16.32925 | 1126 ft | 138 kts | 273° |
| 2026-05-04 15:18 | 38.89644 | 16.31707 | 900 ft | 138 kts | 270° |
| 2026-05-04 15:19 | 38.89908 | 16.29317 | 535 ft | 134 kts | 276° |
| 2026-05-04 15:19 | 38.90073 | 16.28143 | 403 ft | 134 kts | 275° |
| 2026-05-04 15:19 | 38.90362 | 16.25754 | 70 ft | 135 kts | 274° |
| 2026-05-04 15:20 | 38.90492 | 16.24597 | 38 ft | 120 kts | 279° |
| 2026-05-04 15:20 | 38.90598 | 16.23734 | 37 ft | 78 kts | 279° |
| 2026-05-04 15:20 | 38.90640 | 16.23373 | 42 ft | 21 kts | 280° |
| 2026-05-04 15:20 | 38.90659 | 16.23199 | 44 ft | 19 kts | 277° |
| 2026-05-04 15:21 | 38.90676 | 16.23033 | 41 ft | 19 kts | 279° |
| 2026-05-04 15:21 | 38.90703 | 16.22921 | 39 ft | 10 kts | 317° |
| 2026-05-04 15:21 | 38.90780 | 16.22932 | 38 ft | 0 kts | 45° |
| 2026-05-04 15:22 | 38.90789 | 16.22944 | 39 ft | 2 kts | 49° |
| 2026-05-04 15:23 | 38.90804 | 16.22968 | 39 ft | 7 kts | 52° |
| 2026-05-04 15:23 | 38.90833 | 16.23021 | 38 ft | 7 kts | 57° |
| 2026-05-04 15:23 | 38.90855 | 16.23075 | 38 ft | 8 kts | 65° |
| 2026-05-04 15:23 | 38.90875 | 16.23159 | 38 ft | 10 kts | 79° |
| 2026-05-04 15:24 | 38.90866 | 16.23346 | 38 ft | 10 kts | 100° |
| 2026-05-04 15:24 | 38.90848 | 16.23507 | 38 ft | 8 kts | 98° |
| 2026-05-04 15:25 | 38.90840 | 16.23577 | 38 ft | 8 kts | 98° |
| 2026-05-04 15:25 | 38.90833 | 16.23641 | 38 ft | 7 kts | 99° |
| 2026-05-04 15:25 | 38.90822 | 16.23730 | 38 ft | 11 kts | 96° |
| 2026-05-04 15:26 | 38.90883 | 16.23842 | 38 ft | 6 kts | 93° |
| 2026-05-04 15:26 | 38.90876 | 16.23891 | 38 ft | 5 kts | 100° |
| 2026-05-04 15:26 | 38.90859 | 16.24037 | 38 ft | 9 kts | 97° |
| 2026-05-04 15:27 | 38.90887 | 16.24078 | 38 ft | 6 kts | 15° |
| 2026-05-04 15:27 | 38.90933 | 16.24089 | 38 ft | 0 kts | 9° |